sensor_id;sensor_type;location;lat;lon;timestamp;temperature;humidity
13665;DHT22;6905;50.770;6.730;2023-02-08T00:02:19;-1.10;99.90
13665;DHT22;6905;50.770;6.730;2023-02-08T00:04:46;-1.20;99.90
13665;DHT22;6905;50.770;6.730;2023-02-08T00:07:14;-1.20;99.90
13665;DHT22;6905;50.770;6.730;2023-02-08T00:09:43;-1.20;99.90
13665;DHT22;6905;50.770;6.730;2023-02-08T00:12:11;-1.20;99.90
13665;DHT22;6905;50.770;6.730;2023-02-08T00:14:39;-1.20;99.90
13665;DHT22;6905;50.770;6.730;2023-02-08T00:17:06;-1.30;99.90
13665;DHT22;6905;50.770;6.730;2023-02-08T00:19:34;-1.30;99.90
13665;DHT22;6905;50.770;6.730;2023-02-08T00:22:01;-1.30;99.90
13665;DHT22;6905;50.770;6.730;2023-02-08T00:24:28;-1.40;99.90
13665;DHT22;6905;50.770;6.730;2023-02-08T00:26:57;-1.40;99.90
13665;DHT22;6905;50.770;6.730;2023-02-08T00:29:24;-1.40;99.90
13665;DHT22;6905;50.770;6.730;2023-02-08T00:31:53;-1.50;99.90
13665;DHT22;6905;50.770;6.730;2023-02-08T00:34:21;-1.50;99.90
13665;DHT22;6905;50.770;6.730;2023-02-08T00:36:48;-1.60;99.90
13665;DHT22;6905;50.770;6.730;2023-02-08T00:39:15;-1.60;99.90
13665;DHT22;6905;50.770;6.730;2023-02-08T00:41:42;-1.60;99.90
13665;DHT22;6905;50.770;6.730;2023-02-08T00:44:14;-1.60;99.90
13665;DHT22;6905;50.770;6.730;2023-02-08T00:46:41;-1.60;99.90
13665;DHT22;6905;50.770;6.730;2023-02-08T00:54:46;-1.80;99.90
13665;DHT22;6905;50.770;6.730;2023-02-08T00:57:14;-1.80;99.90
13665;DHT22;6905;50.770;6.730;2023-02-08T00:59:42;-1.80;99.90
13665;DHT22;6905;50.770;6.730;2023-02-08T01:02:09;-1.80;99.90
13665;DHT22;6905;50.770;6.730;2023-02-08T01:04:36;-1.80;99.90
13665;DHT22;6905;50.770;6.730;2023-02-08T01:07:03;-1.90;99.90
13665;DHT22;6905;50.770;6.730;2023-02-08T01:09:30;-1.90;99.90
13665;DHT22;6905;50.770;6.730;2023-02-08T01:11:57;-2.00;99.90
13665;DHT22;6905;50.770;6.730;2023-02-08T01:14:24;-2.00;99.90
13665;DHT22;6905;50.770;6.730;2023-02-08T01:16:58;-2.00;99.90
13665;DHT22;6905;50.770;6.730;2023-02-08T01:19:25;-2.10;99.90
13665;DHT22;6905;50.770;6.730;2023-02-08T01:21:52;-2.10;99.90
13665;DHT22;6905;50.770;6.730;2023-02-08T01:24:19;-2.20;99.90
13665;DHT22;6905;50.770;6.730;2023-02-08T01:26:45;-2.20;99.90
13665;DHT22;6905;50.770;6.730;2023-02-08T01:29:13;-2.20;99.90
13665;DHT22;6905;50.770;6.730;2023-02-08T01:31:40;-2.20;99.90
13665;DHT22;6905;50.770;6.730;2023-02-08T01:34:08;-2.30;99.90
13665;DHT22;6905;50.770;6.730;2023-02-08T01:36:35;-2.30;99.90
13665;DHT22;6905;50.770;6.730;2023-02-08T01:39:02;-2.30;99.90
13665;DHT22;6905;50.770;6.730;2023-02-08T01:41:30;-2.30;99.90
13665;DHT22;6905;50.770;6.730;2023-02-08T01:43:58;-2.40;99.90
13665;DHT22;6905;50.770;6.730;2023-02-08T01:46:25;-2.40;99.90
13665;DHT22;6905;50.770;6.730;2023-02-08T01:48:52;-2.50;99.90
13665;DHT22;6905;50.770;6.730;2023-02-08T01:51:22;-2.50;99.90
13665;DHT22;6905;50.770;6.730;2023-02-08T01:53:51;-2.50;99.90
13665;DHT22;6905;50.770;6.730;2023-02-08T01:56:19;-2.50;99.90
13665;DHT22;6905;50.770;6.730;2023-02-08T01:58:48;-2.50;99.90
13665;DHT22;6905;50.770;6.730;2023-02-08T02:01:16;-2.60;99.90
13665;DHT22;6905;50.770;6.730;2023-02-08T02:03:43;-2.60;99.90
13665;DHT22;6905;50.770;6.730;2023-02-08T02:06:12;-2.60;99.90
13665;DHT22;6905;50.770;6.730;2023-02-08T02:08:41;-2.60;99.90
13665;DHT22;6905;50.770;6.730;2023-02-08T02:11:11;-2.60;99.90
13665;DHT22;6905;50.770;6.730;2023-02-08T02:13:38;-2.70;99.90
13665;DHT22;6905;50.770;6.730;2023-02-08T02:16:07;-2.70;99.90
13665;DHT22;6905;50.770;6.730;2023-02-08T02:18:33;-2.70;99.90
13665;DHT22;6905;50.770;6.730;2023-02-08T02:21:04;-2.70;99.90
13665;DHT22;6905;50.770;6.730;2023-02-08T02:31:47;-2.80;99.90
13665;DHT22;6905;50.770;6.730;2023-02-08T02:34:18;-2.80;99.90
13665;DHT22;6905;50.770;6.730;2023-02-08T02:36:50;-2.80;99.90
13665;DHT22;6905;50.770;6.730;2023-02-08T02:39:19;-2.80;99.90
13665;DHT22;6905;50.770;6.730;2023-02-08T02:41:52;-2.90;99.90
13665;DHT22;6905;50.770;6.730;2023-02-08T02:44:38;-2.90;99.90
13665;DHT22;6905;50.770;6.730;2023-02-08T02:47:09;-2.90;99.90
13665;DHT22;6905;50.770;6.730;2023-02-08T02:49:38;-2.90;99.90
13665;DHT22;6905;50.770;6.730;2023-02-08T02:52:07;-3.00;99.90
13665;DHT22;6905;50.770;6.730;2023-02-08T02:54:37;-3.00;99.90
13665;DHT22;6905;50.770;6.730;2023-02-08T02:57:06;-3.00;99.90
13665;DHT22;6905;50.770;6.730;2023-02-08T02:59:36;-3.00;99.90
13665;DHT22;6905;50.770;6.730;2023-02-08T03:02:03;-3.00;99.90
13665;DHT22;6905;50.770;6.730;2023-02-08T03:04:48;-3.10;99.90
13665;DHT22;6905;50.770;6.730;2023-02-08T03:07:28;-3.10;99.90
13665;DHT22;6905;50.770;6.730;2023-02-08T03:10:00;-3.10;99.90
13665;DHT22;6905;50.770;6.730;2023-02-08T03:12:34;-3.20;99.90
13665;DHT22;6905;50.770;6.730;2023-02-08T03:15:04;-3.10;99.90
13665;DHT22;6905;50.770;6.730;2023-02-08T03:17:39;-3.20;99.90
13665;DHT22;6905;50.770;6.730;2023-02-08T03:20:10;-3.20;99.90
13665;DHT22;6905;50.770;6.730;2023-02-08T03:22:42;-3.20;99.90
13665;DHT22;6905;50.770;6.730;2023-02-08T03:25:11;-3.20;99.90
13665;DHT22;6905;50.770;6.730;2023-02-08T03:27:42;-3.20;99.90
13665;DHT22;6905;50.770;6.730;2023-02-08T03:30:14;-3.20;99.90
13665;DHT22;6905;50.770;6.730;2023-02-08T03:32:42;-3.20;99.90
13665;DHT22;6905;50.770;6.730;2023-02-08T03:35:15;-3.20;99.90
13665;DHT22;6905;50.770;6.730;2023-02-08T03:37:44;-3.10;99.90
13665;DHT22;6905;50.770;6.730;2023-02-08T03:40:13;-3.10;99.90
13665;DHT22;6905;50.770;6.730;2023-02-08T03:42:42;-3.10;99.90
13665;DHT22;6905;50.770;6.730;2023-02-08T03:45:11;-3.10;99.90
13665;DHT22;6905;50.770;6.730;2023-02-08T03:47:41;-3.00;99.90
13665;DHT22;6905;50.770;6.730;2023-02-08T03:50:15;-3.00;99.90
13665;DHT22;6905;50.770;6.730;2023-02-08T03:52:43;-3.00;99.90
13665;DHT22;6905;50.770;6.730;2023-02-08T03:55:12;-3.00;99.90
13665;DHT22;6905;50.770;6.730;2023-02-08T03:57:42;-3.00;99.90
13665;DHT22;6905;50.770;6.730;2023-02-08T04:00:11;-2.90;99.90
13665;DHT22;6905;50.770;6.730;2023-02-08T04:02:40;-2.90;99.90
13665;DHT22;6905;50.770;6.730;2023-02-08T04:05:07;-2.90;99.90
13665;DHT22;6905;50.770;6.730;2023-02-08T04:07:36;-2.90;99.90
13665;DHT22;6905;50.770;6.730;2023-02-08T04:10:04;-2.90;99.90
13665;DHT22;6905;50.770;6.730;2023-02-08T04:12:31;-2.90;99.90
13665;DHT22;6905;50.770;6.730;2023-02-08T04:14:57;-2.80;99.90
13665;DHT22;6905;50.770;6.730;2023-02-08T04:17:24;-2.80;99.90
13665;DHT22;6905;50.770;6.730;2023-02-08T04:19:51;-2.80;99.90
13665;DHT22;6905;50.770;6.730;2023-02-08T04:22:17;-2.80;99.90
13665;DHT22;6905;50.770;6.730;2023-02-08T04:24:45;-2.80;99.90
13665;DHT22;6905;50.770;6.730;2023-02-08T04:27:12;-2.80;99.90
13665;DHT22;6905;50.770;6.730;2023-02-08T04:29:39;-2.80;99.90
13665;DHT22;6905;50.770;6.730;2023-02-08T04:32:06;-2.80;99.90
13665;DHT22;6905;50.770;6.730;2023-02-08T04:34:36;-2.80;99.90
13665;DHT22;6905;50.770;6.730;2023-02-08T04:37:04;-2.70;99.90
13665;DHT22;6905;50.770;6.730;2023-02-08T04:39:31;-2.70;99.90
13665;DHT22;6905;50.770;6.730;2023-02-08T04:41:59;-2.70;99.90
13665;DHT22;6905;50.770;6.730;2023-02-08T04:44:26;-2.70;99.90
13665;DHT22;6905;50.770;6.730;2023-02-08T04:46:52;-2.70;99.90
13665;DHT22;6905;50.770;6.730;2023-02-08T04:49:19;-2.70;99.90
13665;DHT22;6905;50.770;6.730;2023-02-08T04:51:46;-2.70;99.90
13665;DHT22;6905;50.770;6.730;2023-02-08T04:54:13;-2.70;99.90
13665;DHT22;6905;50.770;6.730;2023-02-08T04:56:39;-2.70;99.90
13665;DHT22;6905;50.770;6.730;2023-02-08T04:59:07;-2.70;99.90
13665;DHT22;6905;50.770;6.730;2023-02-08T05:01:34;-2.70;99.90
13665;DHT22;6905;50.770;6.730;2023-02-08T05:04:01;-2.80;99.90
13665;DHT22;6905;50.770;6.730;2023-02-08T05:06:28;-2.80;99.90
13665;DHT22;6905;50.770;6.730;2023-02-08T05:08:55;-2.80;99.90
13665;DHT22;6905;50.770;6.730;2023-02-08T05:11:22;-2.80;99.90
13665;DHT22;6905;50.770;6.730;2023-02-08T05:13:49;-2.80;99.90
13665;DHT22;6905;50.770;6.730;2023-02-08T05:16:18;-2.90;99.90
13665;DHT22;6905;50.770;6.730;2023-02-08T05:18:45;-2.90;99.90
13665;DHT22;6905;50.770;6.730;2023-02-08T05:21:11;-2.90;99.90
13665;DHT22;6905;50.770;6.730;2023-02-08T05:23:38;-2.90;99.90
13665;DHT22;6905;50.770;6.730;2023-02-08T05:26:05;-2.90;99.90
13665;DHT22;6905;50.770;6.730;2023-02-08T05:28:32;-2.90;99.90
13665;DHT22;6905;50.770;6.730;2023-02-08T05:30:59;-3.00;99.90
13665;DHT22;6905;50.770;6.730;2023-02-08T05:33:34;-3.00;99.90
13665;DHT22;6905;50.770;6.730;2023-02-08T05:36:00;-3.00;99.90
13665;DHT22;6905;50.770;6.730;2023-02-08T05:38:27;-3.00;99.90
13665;DHT22;6905;50.770;6.730;2023-02-08T05:40:57;-3.00;99.90
13665;DHT22;6905;50.770;6.730;2023-02-08T05:43:23;-3.10;99.90
13665;DHT22;6905;50.770;6.730;2023-02-08T05:45:50;-3.10;99.90
13665;DHT22;6905;50.770;6.730;2023-02-08T05:48:17;-3.10;99.90
13665;DHT22;6905;50.770;6.730;2023-02-08T05:50:45;-3.10;99.90
13665;DHT22;6905;50.770;6.730;2023-02-08T05:53:11;-3.10;99.90
13665;DHT22;6905;50.770;6.730;2023-02-08T05:55:38;-3.20;99.90
13665;DHT22;6905;50.770;6.730;2023-02-08T05:58:05;-3.20;99.90
13665;DHT22;6905;50.770;6.730;2023-02-08T06:00:31;-3.20;99.90
13665;DHT22;6905;50.770;6.730;2023-02-08T06:02:58;-3.20;99.90
13665;DHT22;6905;50.770;6.730;2023-02-08T06:05:27;-3.20;99.90
13665;DHT22;6905;50.770;6.730;2023-02-08T06:07:55;-3.20;99.90
13665;DHT22;6905;50.770;6.730;2023-02-08T06:10:22;-3.20;99.90
13665;DHT22;6905;50.770;6.730;2023-02-08T06:12:48;-3.20;99.90
13665;DHT22;6905;50.770;6.730;2023-02-08T06:59:11;-3.80;99.90
13665;DHT22;6905;50.770;6.730;2023-02-08T07:01:38;-3.80;99.90
13665;DHT22;6905;50.770;6.730;2023-02-08T07:04:05;-3.80;99.90
13665;DHT22;6905;50.770;6.730;2023-02-08T07:06:31;-3.80;99.90
13665;DHT22;6905;50.770;6.730;2023-02-08T07:08:58;-3.80;99.90
13665;DHT22;6905;50.770;6.730;2023-02-08T07:11:26;-3.80;99.90
13665;DHT22;6905;50.770;6.730;2023-02-08T07:14:16;-3.70;99.90
13665;DHT22;6905;50.770;6.730;2023-02-08T07:16:43;-3.70;99.90
13665;DHT22;6905;50.770;6.730;2023-02-08T07:19:09;-3.60;99.90
13665;DHT22;6905;50.770;6.730;2023-02-08T07:21:37;-3.60;99.90
13665;DHT22;6905;50.770;6.730;2023-02-08T07:24:05;-3.60;99.90
13665;DHT22;6905;50.770;6.730;2023-02-08T07:26:32;-3.50;99.90
13665;DHT22;6905;50.770;6.730;2023-02-08T07:32:15;-3.50;99.90
13665;DHT22;6905;50.770;6.730;2023-02-08T07:34:42;-3.50;99.90
13665;DHT22;6905;50.770;6.730;2023-02-08T07:37:10;-3.40;99.90
13665;DHT22;6905;50.770;6.730;2023-02-08T07:39:39;-3.40;99.90
13665;DHT22;6905;50.770;6.730;2023-02-08T07:42:24;-3.30;99.90
13665;DHT22;6905;50.770;6.730;2023-02-08T07:44:51;-3.30;99.90
13665;DHT22;6905;50.770;6.730;2023-02-08T08:03:53;-3.00;99.90
13665;DHT22;6905;50.770;6.730;2023-02-08T08:06:20;-2.90;99.90
13665;DHT22;6905;50.770;6.730;2023-02-08T08:08:47;-2.90;99.90
13665;DHT22;6905;50.770;6.730;2023-02-08T08:11:15;-2.80;99.90
13665;DHT22;6905;50.770;6.730;2023-02-08T08:13:42;-2.70;99.90
13665;DHT22;6905;50.770;6.730;2023-02-08T08:16:09;-2.60;99.90
13665;DHT22;6905;50.770;6.730;2023-02-08T08:18:36;-2.50;99.90
13665;DHT22;6905;50.770;6.730;2023-02-08T08:21:04;-2.40;99.90
13665;DHT22;6905;50.770;6.730;2023-02-08T08:23:31;-2.40;99.90
13665;DHT22;6905;50.770;6.730;2023-02-08T08:25:58;-2.30;99.90
13665;DHT22;6905;50.770;6.730;2023-02-08T08:28:24;-2.20;99.90
13665;DHT22;6905;50.770;6.730;2023-02-08T08:30:51;-2.10;99.90
13665;DHT22;6905;50.770;6.730;2023-02-08T08:33:18;-2.00;99.90
13665;DHT22;6905;50.770;6.730;2023-02-08T08:35:51;-1.80;99.90
13665;DHT22;6905;50.770;6.730;2023-02-08T08:38:19;-1.70;99.90
13665;DHT22;6905;50.770;6.730;2023-02-08T08:40:46;-1.50;99.90
13665;DHT22;6905;50.770;6.730;2023-02-08T08:43:13;-1.40;99.90
13665;DHT22;6905;50.770;6.730;2023-02-08T08:45:40;-1.30;99.90
13665;DHT22;6905;50.770;6.730;2023-02-08T08:48:07;-1.20;99.90
13665;DHT22;6905;50.770;6.730;2023-02-08T08:50:34;-1.00;99.90
13665;DHT22;6905;50.770;6.730;2023-02-08T08:53:03;-0.90;99.90
13665;DHT22;6905;50.770;6.730;2023-02-08T08:55:32;-0.80;99.90
13665;DHT22;6905;50.770;6.730;2023-02-08T08:57:59;-0.60;99.90
13665;DHT22;6905;50.770;6.730;2023-02-08T09:00:28;-0.50;99.90
13665;DHT22;6905;50.770;6.730;2023-02-08T09:02:55;-0.40;99.90
13665;DHT22;6905;50.770;6.730;2023-02-08T09:05:21;-0.20;99.90
13665;DHT22;6905;50.770;6.730;2023-02-08T09:07:48;-0.10;99.90
13665;DHT22;6905;50.770;6.730;2023-02-08T09:10:15;0.00;99.90
13665;DHT22;6905;50.770;6.730;2023-02-08T09:12:43;0.20;99.90
13665;DHT22;6905;50.770;6.730;2023-02-08T09:15:10;0.30;99.90
13665;DHT22;6905;50.770;6.730;2023-02-08T09:17:37;0.50;99.90
13665;DHT22;6905;50.770;6.730;2023-02-08T09:20:04;0.60;99.90
13665;DHT22;6905;50.770;6.730;2023-02-08T09:25:31;0.90;99.90
13665;DHT22;6905;50.770;6.730;2023-02-08T09:27:59;1.10;99.90
13665;DHT22;6905;50.770;6.730;2023-02-08T09:30:25;1.40;99.90
13665;DHT22;6905;50.770;6.730;2023-02-08T09:32:54;1.50;99.90
13665;DHT22;6905;50.770;6.730;2023-02-08T09:35:21;1.70;99.90
13665;DHT22;6905;50.770;6.730;2023-02-08T09:37:48;1.90;99.90
13665;DHT22;6905;50.770;6.730;2023-02-08T09:40:27;2.10;99.90
13665;DHT22;6905;50.770;6.730;2023-02-08T09:43:01;2.30;99.90
13665;DHT22;6905;50.770;6.730;2023-02-08T09:45:32;2.50;99.90
13665;DHT22;6905;50.770;6.730;2023-02-08T09:48:05;2.60;99.90
13665;DHT22;6905;50.770;6.730;2023-02-08T09:50:39;2.80;99.90
13665;DHT22;6905;50.770;6.730;2023-02-08T09:53:09;2.90;99.90
13665;DHT22;6905;50.770;6.730;2023-02-08T09:55:39;3.20;99.90
13665;DHT22;6905;50.770;6.730;2023-02-08T10:01:15;3.50;99.90
13665;DHT22;6905;50.770;6.730;2023-02-08T10:03:46;3.50;99.90
13665;DHT22;6905;50.770;6.730;2023-02-08T10:06:14;3.70;99.90
13665;DHT22;6905;50.770;6.730;2023-02-08T10:08:41;3.90;99.90
13665;DHT22;6905;50.770;6.730;2023-02-08T10:11:19;4.10;99.90
13665;DHT22;6905;50.770;6.730;2023-02-08T10:13:51;4.40;99.90
13665;DHT22;6905;50.770;6.730;2023-02-08T10:16:27;4.60;99.90
13665;DHT22;6905;50.770;6.730;2023-02-08T10:19:03;4.80;99.90
13665;DHT22;6905;50.770;6.730;2023-02-08T10:21:38;5.20;99.90
13665;DHT22;6905;50.770;6.730;2023-02-08T10:24:19;5.40;99.90
13665;DHT22;6905;50.770;6.730;2023-02-08T10:26:51;5.40;99.90
13665;DHT22;6905;50.770;6.730;2023-02-08T10:29:40;5.80;99.90
13665;DHT22;6905;50.770;6.730;2023-02-08T10:32:21;5.90;99.90
13665;DHT22;6905;50.770;6.730;2023-02-08T10:34:53;6.20;99.90
13665;DHT22;6905;50.770;6.730;2023-02-08T10:37:24;6.30;99.90
13665;DHT22;6905;50.770;6.730;2023-02-08T10:39:52;6.40;99.90
13665;DHT22;6905;50.770;6.730;2023-02-08T10:42:20;6.60;99.90
13665;DHT22;6905;50.770;6.730;2023-02-08T10:44:50;6.80;99.90
13665;DHT22;6905;50.770;6.730;2023-02-08T10:47:21;7.00;99.90
13665;DHT22;6905;50.770;6.730;2023-02-08T10:49:52;7.10;99.90
13665;DHT22;6905;50.770;6.730;2023-02-08T10:52:23;7.30;99.90
13665;DHT22;6905;50.770;6.730;2023-02-08T10:54:55;7.50;99.90
13665;DHT22;6905;50.770;6.730;2023-02-08T10:57:23;7.70;99.90
13665;DHT22;6905;50.770;6.730;2023-02-08T10:59:52;7.80;99.90
13665;DHT22;6905;50.770;6.730;2023-02-08T11:02:22;8.00;99.90
13665;DHT22;6905;50.770;6.730;2023-02-08T11:12:36;8.60;99.90
13665;DHT22;6905;50.770;6.730;2023-02-08T11:15:04;8.80;99.90
13665;DHT22;6905;50.770;6.730;2023-02-08T11:17:32;8.80;96.70
13665;DHT22;6905;50.770;6.730;2023-02-08T11:19:59;8.90;97.60
13665;DHT22;6905;50.770;6.730;2023-02-08T11:22:26;9.10;98.00
13665;DHT22;6905;50.770;6.730;2023-02-08T11:24:56;9.20;96.10
13665;DHT22;6905;50.770;6.730;2023-02-08T11:27:29;9.30;94.30
13665;DHT22;6905;50.770;6.730;2023-02-08T11:30:08;9.40;93.40
13665;DHT22;6905;50.770;6.730;2023-02-08T11:35:39;9.40;90.30
13665;DHT22;6905;50.770;6.730;2023-02-08T11:38:14;9.50;90.90
13665;DHT22;6905;50.770;6.730;2023-02-08T11:40:46;9.80;89.00
13665;DHT22;6905;50.770;6.730;2023-02-08T11:43:19;10.00;92.20
13665;DHT22;6905;50.770;6.730;2023-02-08T11:45:47;10.00;86.00
13665;DHT22;6905;50.770;6.730;2023-02-08T11:48:19;10.00;84.10
13665;DHT22;6905;50.770;6.730;2023-02-08T11:50:53;10.20;90.60
13665;DHT22;6905;50.770;6.730;2023-02-08T11:53:23;10.30;86.30
13665;DHT22;6905;50.770;6.730;2023-02-08T11:56:00;10.50;82.70
13665;DHT22;6905;50.770;6.730;2023-02-08T11:58:32;10.70;89.00
13665;DHT22;6905;50.770;6.730;2023-02-08T12:01:01;10.80;85.80
13665;DHT22;6905;50.770;6.730;2023-02-08T12:03:29;11.00;83.00
13665;DHT22;6905;50.770;6.730;2023-02-08T12:06:05;11.10;81.90
13665;DHT22;6905;50.770;6.730;2023-02-08T12:08:53;11.10;78.50
13665;DHT22;6905;50.770;6.730;2023-02-08T12:11:35;11.20;83.00
13665;DHT22;6905;50.770;6.730;2023-02-08T12:14:20;11.00;75.00
13665;DHT22;6905;50.770;6.730;2023-02-08T12:17:17;11.10;71.60
13665;DHT22;6905;50.770;6.730;2023-02-08T12:20:04;11.10;73.30
13665;DHT22;6905;50.770;6.730;2023-02-08T12:22:56;11.40;73.40
13665;DHT22;6905;50.770;6.730;2023-02-08T13:02:33;12.50;72.20
13665;DHT22;6905;50.770;6.730;2023-02-08T13:05:10;12.60;65.30
13665;DHT22;6905;50.770;6.730;2023-02-08T13:07:44;12.50;70.50
13665;DHT22;6905;50.770;6.730;2023-02-08T13:10:17;12.90;71.90
13665;DHT22;6905;50.770;6.730;2023-02-08T13:12:51;13.10;66.30
13665;DHT22;6905;50.770;6.730;2023-02-08T13:15:26;13.00;63.60
13665;DHT22;6905;50.770;6.730;2023-02-08T13:18:09;13.10;62.10
13665;DHT22;6905;50.770;6.730;2023-02-08T13:20:51;13.20;65.50
13665;DHT22;6905;50.770;6.730;2023-02-08T13:23:21;13.30;65.40
13665;DHT22;6905;50.770;6.730;2023-02-08T13:26:04;13.40;64.30
13665;DHT22;6905;50.770;6.730;2023-02-08T13:28:40;13.40;65.80
13665;DHT22;6905;50.770;6.730;2023-02-08T13:31:11;13.60;62.00
13665;DHT22;6905;50.770;6.730;2023-02-08T13:33:42;13.80;60.90
13665;DHT22;6905;50.770;6.730;2023-02-08T13:36:17;14.20;67.00
13665;DHT22;6905;50.770;6.730;2023-02-08T13:38:48;14.20;64.40
13665;DHT22;6905;50.770;6.730;2023-02-08T13:41:20;14.40;60.00
13665;DHT22;6905;50.770;6.730;2023-02-08T13:43:49;14.50;59.70
13665;DHT22;6905;50.770;6.730;2023-02-08T13:52:07;14.70;59.30
13665;DHT22;6905;50.770;6.730;2023-02-08T13:54:36;14.50;55.70
13665;DHT22;6905;50.770;6.730;2023-02-08T13:57:03;14.60;57.50
13665;DHT22;6905;50.770;6.730;2023-02-08T13:59:34;14.70;59.80
13665;DHT22;6905;50.770;6.730;2023-02-08T14:02:20;14.50;60.30
13665;DHT22;6905;50.770;6.730;2023-02-08T14:04:48;14.80;60.60
13665;DHT22;6905;50.770;6.730;2023-02-08T14:07:29;14.90;58.20
13665;DHT22;6905;50.770;6.730;2023-02-08T14:21:29;15.00;57.40
13665;DHT22;6905;50.770;6.730;2023-02-08T14:23:59;14.90;57.40
13665;DHT22;6905;50.770;6.730;2023-02-08T14:26:27;14.70;55.40
13665;DHT22;6905;50.770;6.730;2023-02-08T15:57:20;10.80;63.70
13665;DHT22;6905;50.770;6.730;2023-02-08T15:59:47;10.70;62.90
13665;DHT22;6905;50.770;6.730;2023-02-08T16:02:20;10.60;62.50
13665;DHT22;6905;50.770;6.730;2023-02-08T16:04:52;10.40;64.00
13665;DHT22;6905;50.770;6.730;2023-02-08T16:07:24;10.20;65.30
13665;DHT22;6905;50.770;6.730;2023-02-08T16:09:52;10.10;67.70
13665;DHT22;6905;50.770;6.730;2023-02-08T16:12:21;9.90;67.80
13665;DHT22;6905;50.770;6.730;2023-02-08T16:14:48;9.70;70.90
13665;DHT22;6905;50.770;6.730;2023-02-08T16:22:27;9.30;72.70
13665;DHT22;6905;50.770;6.730;2023-02-08T16:28:00;8.80;74.50
13665;DHT22;6905;50.770;6.730;2023-02-08T16:30:27;8.60;75.80
13665;DHT22;6905;50.770;6.730;2023-02-08T17:02:54;6.70;90.10
13665;DHT22;6905;50.770;6.730;2023-02-08T17:05:26;6.60;90.40
13665;DHT22;6905;50.770;6.730;2023-02-08T17:11:16;6.30;90.20
13665;DHT22;6905;50.770;6.730;2023-02-08T17:13:58;6.20;90.80
13665;DHT22;6905;50.770;6.730;2023-02-08T17:19:45;5.90;92.60
13665;DHT22;6905;50.770;6.730;2023-02-08T17:22:12;5.70;93.10
13665;DHT22;6905;50.770;6.730;2023-02-08T17:27:59;5.50;93.90
13665;DHT22;6905;50.770;6.730;2023-02-08T17:35:54;5.10;96.00
13665;DHT22;6905;50.770;6.730;2023-02-08T17:38:24;5.00;95.70
13665;DHT22;6905;50.770;6.730;2023-02-08T17:41:03;4.80;96.40
13665;DHT22;6905;50.770;6.730;2023-02-08T17:43:30;4.80;97.30
13665;DHT22;6905;50.770;6.730;2023-02-08T17:46:07;4.70;97.80
13665;DHT22;6905;50.770;6.730;2023-02-08T17:48:42;4.60;97.80
13665;DHT22;6905;50.770;6.730;2023-02-08T17:51:27;4.40;99.00
13665;DHT22;6905;50.770;6.730;2023-02-08T17:54:10;4.40;98.70
13665;DHT22;6905;50.770;6.730;2023-02-08T17:56:46;4.30;99.30
13665;DHT22;6905;50.770;6.730;2023-02-08T17:59:21;4.30;98.80
13665;DHT22;6905;50.770;6.730;2023-02-08T18:04:46;4.10;99.40
13665;DHT22;6905;50.770;6.730;2023-02-08T18:07:19;4.10;99.90
13665;DHT22;6905;50.770;6.730;2023-02-08T18:09:50;4.00;99.90
13665;DHT22;6905;50.770;6.730;2023-02-08T18:12:22;4.00;99.90
13665;DHT22;6905;50.770;6.730;2023-02-08T18:14:51;3.90;99.90
13665;DHT22;6905;50.770;6.730;2023-02-08T18:20:36;3.70;99.90
13665;DHT22;6905;50.770;6.730;2023-02-08T18:26:17;3.50;99.90
13665;DHT22;6905;50.770;6.730;2023-02-08T18:28:44;3.50;99.90
13665;DHT22;6905;50.770;6.730;2023-02-08T18:31:13;3.40;99.90
13665;DHT22;6905;50.770;6.730;2023-02-08T18:33:54;3.30;99.90
13665;DHT22;6905;50.770;6.730;2023-02-08T18:36:48;3.30;99.90
13665;DHT22;6905;50.770;6.730;2023-02-08T18:45:50;3.10;99.90
13665;DHT22;6905;50.770;6.730;2023-02-08T18:48:37;3.00;99.90
13665;DHT22;6905;50.770;6.730;2023-02-08T18:54:13;2.80;99.90
13665;DHT22;6905;50.770;6.730;2023-02-08T18:56:43;2.70;99.90
13665;DHT22;6905;50.770;6.730;2023-02-08T18:59:11;2.70;99.90
13665;DHT22;6905;50.770;6.730;2023-02-08T19:01:51;2.60;99.90
13665;DHT22;6905;50.770;6.730;2023-02-08T19:04:20;2.60;99.90
13665;DHT22;6905;50.770;6.730;2023-02-08T19:07:05;2.50;99.90
13665;DHT22;6905;50.770;6.730;2023-02-08T19:09:33;2.40;99.90
13665;DHT22;6905;50.770;6.730;2023-02-08T19:12:03;2.30;99.90
13665;DHT22;6905;50.770;6.730;2023-02-08T19:14:32;2.30;99.90
13665;DHT22;6905;50.770;6.730;2023-02-08T19:17:04;2.20;99.90
13665;DHT22;6905;50.770;6.730;2023-02-08T19:19:36;2.20;99.90
13665;DHT22;6905;50.770;6.730;2023-02-08T19:22:05;2.10;99.90
13665;DHT22;6905;50.770;6.730;2023-02-08T19:24:33;2.00;99.90
13665;DHT22;6905;50.770;6.730;2023-02-08T19:27:05;2.00;99.90
13665;DHT22;6905;50.770;6.730;2023-02-08T19:29:38;1.90;99.90
13665;DHT22;6905;50.770;6.730;2023-02-08T19:35:06;1.80;99.90
13665;DHT22;6905;50.770;6.730;2023-02-08T19:37:34;1.70;99.90
13665;DHT22;6905;50.770;6.730;2023-02-08T19:40:04;1.60;99.90
13665;DHT22;6905;50.770;6.730;2023-02-08T20:09:22;1.10;99.90
13665;DHT22;6905;50.770;6.730;2023-02-08T20:17:00;1.00;99.90
13665;DHT22;6905;50.770;6.730;2023-02-08T20:19:28;0.90;99.90
13665;DHT22;6905;50.770;6.730;2023-02-08T20:21:55;0.90;99.90
13665;DHT22;6905;50.770;6.730;2023-02-08T20:24:23;0.80;99.90
13665;DHT22;6905;50.770;6.730;2023-02-08T20:26:50;0.80;99.90
13665;DHT22;6905;50.770;6.730;2023-02-08T20:29:17;0.80;99.90
13665;DHT22;6905;50.770;6.730;2023-02-08T20:31:45;0.80;99.90
13665;DHT22;6905;50.770;6.730;2023-02-08T20:34:14;0.80;99.90
13665;DHT22;6905;50.770;6.730;2023-02-08T20:36:43;0.70;99.90
13665;DHT22;6905;50.770;6.730;2023-02-08T20:39:13;0.70;99.90
13665;DHT22;6905;50.770;6.730;2023-02-08T20:41:42;0.70;99.90
13665;DHT22;6905;50.770;6.730;2023-02-08T20:47:13;0.60;99.90
13665;DHT22;6905;50.770;6.730;2023-02-08T20:49:43;0.60;99.90
13665;DHT22;6905;50.770;6.730;2023-02-08T20:52:10;0.50;99.90
13665;DHT22;6905;50.770;6.730;2023-02-08T20:54:38;0.50;99.90
13665;DHT22;6905;50.770;6.730;2023-02-08T20:57:09;0.40;99.90
13665;DHT22;6905;50.770;6.730;2023-02-08T20:59:43;0.40;99.90
13665;DHT22;6905;50.770;6.730;2023-02-08T21:02:20;0.30;99.90
13665;DHT22;6905;50.770;6.730;2023-02-08T21:04:48;0.30;99.90
13665;DHT22;6905;50.770;6.730;2023-02-08T21:07:15;0.20;99.90
13665;DHT22;6905;50.770;6.730;2023-02-08T21:12:47;0.20;99.90
13665;DHT22;6905;50.770;6.730;2023-02-08T21:18:13;0.00;99.90
13665;DHT22;6905;50.770;6.730;2023-02-08T21:26:57;-0.20;99.90
13665;DHT22;6905;50.770;6.730;2023-02-08T21:32:24;-0.30;99.90
13665;DHT22;6905;50.770;6.730;2023-02-08T21:41:32;-0.50;99.90
13665;DHT22;6905;50.770;6.730;2023-02-08T21:46:54;-0.60;99.90
13665;DHT22;6905;50.770;6.730;2023-02-08T21:52:39;-0.70;99.90
13665;DHT22;6905;50.770;6.730;2023-02-08T21:55:23;-0.70;99.90
13665;DHT22;6905;50.770;6.730;2023-02-08T21:57:50;-0.80;99.90
13665;DHT22;6905;50.770;6.730;2023-02-08T22:09:28;-1.00;99.90
13665;DHT22;6905;50.770;6.730;2023-02-08T22:18:02;-1.10;99.90
13665;DHT22;6905;50.770;6.730;2023-02-08T22:20:35;-1.20;99.90
13665;DHT22;6905;50.770;6.730;2023-02-08T22:23:07;-1.20;99.90
13665;DHT22;6905;50.770;6.730;2023-02-08T22:28:29;-1.20;99.90
13665;DHT22;6905;50.770;6.730;2023-02-08T22:33:50;-1.30;99.90
13665;DHT22;6905;50.770;6.730;2023-02-08T22:36:32;-1.40;99.90
13665;DHT22;6905;50.770;6.730;2023-02-08T22:39:01;-1.40;99.90
13665;DHT22;6905;50.770;6.730;2023-02-08T22:41:39;-1.50;99.90
13665;DHT22;6905;50.770;6.730;2023-02-08T22:44:20;-1.50;99.90
13665;DHT22;6905;50.770;6.730;2023-02-08T22:46:52;-1.60;99.90
13665;DHT22;6905;50.770;6.730;2023-02-08T22:49:26;-1.60;99.90